createdAt,value
2018-07-03T00:02:26.919Z,4.44
2018-07-03T00:08:21.942Z,5.04
2018-07-03T00:14:16.868Z,5.05
2018-07-03T00:20:11.903Z,4.43
2018-07-03T00:26:06.892Z,5.01
2018-07-03T00:32:01.927Z,4.91
2018-07-03T00:37:56.952Z,5.76
2018-07-03T00:43:51.917Z,5.17
2018-07-03T00:49:46.923Z,5.25
2018-07-03T00:55:41.892Z,5.47
2018-07-03T01:01:36.945Z,5.4
2018-07-03T01:07:31.936Z,5.39
2018-07-03T01:13:26.955Z,8.58
2018-07-03T01:19:21.933Z,5.64
2018-07-03T01:25:16.912Z,5.86
2018-07-03T01:31:11.978Z,7.02
2018-07-03T01:37:06.930Z,8.23
2018-07-03T01:43:01.966Z,5.51
2018-07-03T01:48:56.949Z,5.8
2018-07-03T01:54:51.980Z,6.08
2018-07-03T02:00:46.950Z,6.29
2018-07-03T02:06:41.969Z,5.7
2018-07-03T02:12:36.992Z,6.73
2018-07-03T02:18:31.963Z,6.01
2018-07-03T02:24:26.986Z,7.06
2018-07-03T02:30:22.018Z,6.8
2018-07-03T02:36:16.950Z,6.48
2018-07-03T02:42:12.036Z,5.71
2018-07-03T02:48:07.006Z,7.38
2018-07-03T02:54:02.010Z,7.47
2018-07-03T02:59:57.042Z,7.33
2018-07-03T03:05:51.980Z,6.91
2018-07-03T03:11:47.010Z,6.71
2018-07-03T03:17:42.000Z,6.13
2018-07-03T03:23:37.003Z,8.91
2018-07-03T03:29:32.050Z,5.97
2018-07-03T03:35:27.046Z,7.78
2018-07-03T03:41:22.024Z,6.55
2018-07-03T03:47:17.035Z,6.56
2018-07-03T03:53:12.060Z,6.97
2018-07-03T03:59:07.087Z,6.86
2018-07-03T04:05:02.394Z,7.91
2018-07-03T04:10:57.090Z,6.76
2018-07-03T04:16:52.087Z,7.78
2018-07-03T04:22:47.121Z,7.25
2018-07-03T04:28:42.059Z,8.21
2018-07-03T04:34:37.094Z,6.76
2018-07-03T04:40:32.164Z,6.69
2018-07-03T04:46:27.085Z,6.81
2018-07-03T04:52:22.085Z,6.26
2018-07-03T04:58:17.068Z,7.27
2018-07-03T05:04:12.144Z,8.38
2018-07-03T05:10:07.170Z,8.91
2018-07-03T05:16:02.201Z,7.64
2018-07-03T05:21:57.151Z,8.53
2018-07-03T05:27:52.124Z,12.04
2018-07-03T05:33:47.116Z,12.34
2018-07-03T05:39:42.168Z,10.77
2018-07-03T05:45:37.103Z,11.32
2018-07-03T05:51:32.195Z,13.48
2018-07-03T05:57:27.122Z,11.89
2018-07-03T06:03:22.124Z,15.84
2018-07-03T06:09:17.273Z,9.12
2018-07-03T06:15:12.136Z,12.11
2018-07-03T06:21:07.241Z,13.23
2018-07-03T06:27:02.196Z,13.95
2018-07-03T06:32:57.140Z,16.93
2018-07-03T06:38:52.236Z,11.84
2018-07-03T06:44:47.246Z,15.38
2018-07-03T06:50:42.260Z,17.71
2018-07-03T06:56:37.236Z,25.11
2018-07-03T07:02:32.189Z,16.88
2018-07-03T07:08:27.281Z,34.9
2018-07-03T07:14:22.204Z,23.84
2018-07-03T07:20:17.277Z,12.17
2018-07-03T07:26:12.198Z,15.25
2018-07-03T07:32:07.233Z,13.72
2018-07-03T07:38:02.239Z,12.34
2018-07-03T07:43:57.242Z,18.03
2018-07-03T07:49:52.290Z,12.05
2018-07-03T07:55:47.327Z,6.75
2018-07-03T08:01:42.237Z,9.26
2018-07-03T08:07:37.265Z,18.72
2018-07-03T08:13:32.308Z,11.19
2018-07-03T08:19:27.277Z,11.05
2018-07-03T08:25:22.259Z,11.18
2018-07-03T08:31:17.279Z,8.22
2018-07-03T08:37:12.349Z,11.24
2018-07-03T08:43:07.276Z,7.29
2018-07-03T08:49:02.258Z,9.66
2018-07-03T08:54:57.322Z,7.67
2018-07-03T09:00:52.370Z,7.22
2018-07-03T09:06:47.380Z,6.49
2018-07-03T09:12:42.326Z,10.16
2018-07-03T09:18:37.322Z,7.38
2018-07-03T09:24:32.319Z,9.84
2018-07-03T09:30:27.365Z,12.24
2018-07-03T09:36:22.331Z,10.21
2018-07-03T09:42:17.343Z,5.28
2018-07-03T09:48:12.369Z,10.91
2018-07-03T09:54:07.336Z,5.34
2018-07-03T10:00:02.826Z,7.47
2018-07-03T10:05:57.401Z,6.69
2018-07-03T10:11:52.372Z,4.56
2018-07-03T10:17:47.364Z,4.54
2018-07-03T10:23:42.425Z,7.69
2018-07-03T10:29:37.417Z,4.35
2018-07-03T10:35:32.381Z,5.89
2018-07-03T10:41:27.400Z,8.1
2018-07-03T10:47:22.401Z,4.48
2018-07-03T10:53:17.425Z,5.21
2018-07-03T10:59:12.401Z,4.76
2018-07-03T11:05:07.392Z,4.58
2018-07-03T11:11:02.435Z,4.74
2018-07-03T11:16:57.432Z,5.34
2018-07-03T11:22:52.452Z,6.46
2018-07-03T11:28:47.458Z,4.95
2018-07-03T11:34:42.482Z,7.31
2018-07-03T11:40:37.439Z,3.96
2018-07-03T11:46:32.454Z,4.58
2018-07-03T11:52:27.466Z,3.95
2018-07-03T11:58:22.457Z,6.9
2018-07-03T12:04:17.490Z,4.5
2018-07-03T12:10:12.440Z,5.88
2018-07-03T12:16:07.501Z,6.71
2018-07-03T12:22:02.501Z,4.58
2018-07-03T12:27:57.521Z,4.43
2018-07-03T12:33:52.493Z,5.69
2018-07-03T12:39:47.542Z,9.52
2018-07-03T12:45:42.505Z,9.71
2018-07-03T12:51:37.484Z,5.29
2018-07-03T12:57:32.541Z,6.27
2018-07-03T13:03:27.495Z,4.12
2018-07-03T13:09:22.562Z,4.41
2018-07-03T13:15:17.537Z,5.54
2018-07-03T13:21:12.551Z,5.3
2018-07-03T13:27:07.532Z,4.27
2018-07-03T13:38:59.846Z,4.23
2018-07-03T13:44:52.576Z,4.14
2018-07-03T13:56:42.579Z,14.47
2018-07-03T14:02:37.597Z,4.63
2018-07-03T14:08:32.564Z,4.81
2018-07-03T14:14:27.608Z,6.32
2018-07-03T14:20:22.580Z,4.84
2018-07-03T14:26:17.682Z,9.89
2018-07-03T14:32:12.638Z,8.15
2018-07-03T14:38:07.610Z,5.68
2018-07-03T14:44:02.610Z,11.57
2018-07-03T14:49:57.645Z,8.17
2018-07-03T14:55:52.617Z,3.91
2018-07-03T15:01:47.626Z,4.79
2018-07-03T15:07:42.621Z,8.07
2018-07-03T15:13:37.662Z,4.18
2018-07-03T15:19:32.713Z,4.76
2018-07-03T15:25:27.665Z,5.58
2018-07-03T15:31:22.740Z,4.33
2018-07-03T15:37:17.734Z,4.58
2018-07-03T15:43:12.804Z,6.7
2018-07-03T15:49:07.689Z,6.48
2018-07-03T15:55:02.685Z,4.23
2018-07-03T16:00:57.766Z,6.27
2018-07-03T16:06:52.651Z,7.42
2018-07-03T16:12:47.717Z,10.54
2018-07-03T16:18:42.689Z,6.38
2018-07-03T16:24:37.740Z,9.23
2018-07-03T16:30:32.699Z,8.24
2018-07-03T16:36:27.756Z,9.86
2018-07-03T16:42:22.780Z,8.71
2018-07-03T16:48:17.832Z,4.96
2018-07-03T16:54:12.704Z,8.05
2018-07-03T17:00:07.720Z,13.23
2018-07-03T17:06:02.753Z,7.42
2018-07-03T17:11:57.748Z,6.87
2018-07-03T17:17:52.752Z,9.52
2018-07-03T17:23:47.730Z,7.82
2018-07-03T17:29:42.779Z,10.32
2018-07-03T17:35:37.761Z,10.08
2018-07-03T17:41:32.783Z,6.85
2018-07-03T17:47:27.786Z,8.97
2018-07-03T17:53:22.781Z,11.57
2018-07-03T17:59:17.898Z,10.08
2018-07-03T18:05:12.856Z,13.19
2018-07-03T18:11:07.829Z,12.63
2018-07-03T18:17:02.881Z,10.33
2018-07-03T18:22:57.793Z,11.49
2018-07-03T18:28:52.791Z,9.57
2018-07-03T18:34:47.799Z,11.98
2018-07-03T18:40:42.819Z,13.9
2018-07-03T18:46:37.821Z,14.46
2018-07-03T18:52:32.805Z,17.47
2018-07-03T18:58:27.859Z,16.66
2018-07-03T19:04:22.819Z,21.6
2018-07-03T19:10:17.881Z,22.02
2018-07-03T19:16:12.840Z,14
2018-07-03T19:22:07.983Z,20
2018-07-03T19:28:02.931Z,13.97
2018-07-03T19:33:57.838Z,14.69
2018-07-03T19:39:52.873Z,20.46
2018-07-03T19:45:47.936Z,16.62
2018-07-03T19:51:42.903Z,18.09
2018-07-03T19:57:37.878Z,20.27
2018-07-03T20:03:32.915Z,15.8
2018-07-03T20:09:27.930Z,17.81
2018-07-03T20:15:22.875Z,19.8
2018-07-03T20:21:17.944Z,24.47
2018-07-03T20:27:12.928Z,21.4
2018-07-03T20:33:07.929Z,18.15
2018-07-03T20:39:02.924Z,20.61
2018-07-03T20:44:57.938Z,19.36
2018-07-03T20:50:53.022Z,22.17
2018-07-03T20:56:47.920Z,15.8
2018-07-03T21:02:42.931Z,17.47
2018-07-03T21:08:37.934Z,22.13
2018-07-03T21:14:32.943Z,20.01
2018-07-03T21:20:27.998Z,20.54
2018-07-03T21:26:23.034Z,23.63
2018-07-03T21:32:17.976Z,19.26
2018-07-03T21:38:12.959Z,17.97
2018-07-03T21:44:08.006Z,18.73
2018-07-03T21:50:02.997Z,17.41
2018-07-03T21:55:58.069Z,19.57
2018-07-03T22:01:53.016Z,21.39
2018-07-03T22:07:47.995Z,18.33
2018-07-03T22:13:43.000Z,20.6
2018-07-03T22:19:38.036Z,25.24
2018-07-03T22:25:33.021Z,17.77
2018-07-03T22:31:28.150Z,17.01
2018-07-03T22:37:23.025Z,20.63
2018-07-03T22:43:18.087Z,24.09
2018-07-03T22:49:13.075Z,26
2018-07-03T22:55:08.088Z,21.56
2018-07-03T23:01:03.075Z,19.01
2018-07-03T23:06:58.022Z,17.5
2018-07-03T23:12:53.050Z,23.86
2018-07-03T23:18:48.056Z,21.35
2018-07-03T23:24:43.054Z,20.19
2018-07-03T23:30:38.046Z,20.39
2018-07-03T23:36:33.082Z,24.48
2018-07-03T23:42:28.085Z,22.83
2018-07-03T23:48:23.121Z,22.23
2018-07-03T23:54:18.103Z,21.98
